Hauptseite
METAR-TAF:

METAR-TAF

Flughäfen :

Duschanbe, Tadschikistan

Flughafen Duschanbe

Breite: 38-33N, Länge: 068-47E, Höhe: 803 m

Beobachtung

Neuester Wetterbericht von vor 19 Minuten, um 23:30 UTC
Wind 4 kt aus Ost
Temperatur 17°C
Luftfeuchtigkeit 42%
Luftdruck 1012 hPa
Sichtweite 10 km oder mehr

METAR: UTDD 162330Z 09002MPS 9999 NSC 17/04 Q1012 R09/CLRD// NOSIG RMK QFE691/0921

Zeit: 04:49 (23:49 UTC)

Prognose

Neuester Wetterbericht von vor 2 Stunden und 49 Minuten, um 21:00 UTC
Gültige Prognose vom 16 um 22 UTC bis 17 um 10 UTC
Wind 4 kt aus unterschiedlichen Richtungen
Sichtweite: 6000 m
Leicht bewölkt in der Höhe von 6600 ft
Aufgelockert bewölkt in der Höhe von 15000 ft
Zeitweise
vom 16 um 22 UTC bis 17 um 07 UTC
Wind 10 kt aus Ost

TAF: UTDD 162100Z 1622/1710 VRB02MPS 6000 FEW066 SCT150 TEMPO 1622/1707 09005MPS

Wetterbeobachtungen und Prognosen von mehr als 4000 Flughäfen (METAR und TAF Bericht).

Die verfügbaren Stationen werden durch gelbe und rote Markierungen auf der Karte dargestellt.

Führen Sie die Maus auf sie, um den Namen der Station zu sehen.

Darauf klicken, um die Beobachtung von Wetterbeobachtungen und Prognosen zu sehen.

Um die Karte zu ändern : klicken Sie auf den grünen Tasten mit einem schwarzen Kreuz Zum Vergrößern, auf den grünen Button mit einem Gedankenstrich zu verkleinern, oder auf die grünen Pfeile für benachbarte Karten.


METAR-TAF: